sensor_id;sensor_type;location;lat;lon;timestamp;P1;durP1;ratioP1;P2;durP2;ratioP2
46757;SDS011;32509;47.750;-3.396;2023-06-22T00:00:57;4.57;;;4.18;;
46757;SDS011;32509;47.750;-3.396;2023-06-22T00:03:24;6.07;;;4.60;;
46757;SDS011;32509;47.750;-3.396;2023-06-22T00:05:50;7.07;;;5.60;;
46757;SDS011;32509;47.750;-3.396;2023-06-22T00:08:17;6.43;;;4.70;;
46757;SDS011;32509;47.750;-3.396;2023-06-22T00:10:44;5.78;;;4.40;;
46757;SDS011;32509;47.750;-3.396;2023-06-22T00:13:10;4.53;;;4.13;;
46757;SDS011;32509;47.750;-3.396;2023-06-22T00:15:37;6.63;;;4.70;;
46757;SDS011;32509;47.750;-3.396;2023-06-22T00:18:07;5.13;;;4.60;;
46757;SDS011;32509;47.750;-3.396;2023-06-22T00:20:34;4.88;;;4.43;;
46757;SDS011;32509;47.750;-3.396;2023-06-22T00:23:02;6.28;;;4.32;;
46757;SDS011;32509;47.750;-3.396;2023-06-22T00:25:37;5.00;;;4.60;;
46757;SDS011;32509;47.750;-3.396;2023-06-22T00:28:05;4.85;;;4.45;;
46757;SDS011;32509;47.750;-3.396;2023-06-22T00:30:31;4.38;;;3.90;;
46757;SDS011;32509;47.750;-3.396;2023-06-22T00:32:58;5.47;;;4.32;;
46757;SDS011;32509;47.750;-3.396;2023-06-22T00:35:24;7.38;;;4.30;;
46757;SDS011;32509;47.750;-3.396;2023-06-22T00:37:56;4.55;;;3.88;;
46757;SDS011;32509;47.750;-3.396;2023-06-22T00:40:29;4.33;;;3.93;;
46757;SDS011;32509;47.750;-3.396;2023-06-22T00:42:55;4.13;;;3.83;;
46757;SDS011;32509;47.750;-3.396;2023-06-22T00:45:22;6.03;;;4.10;;
46757;SDS011;32509;47.750;-3.396;2023-06-22T00:47:49;8.63;;;4.55;;
46757;SDS011;32509;47.750;-3.396;2023-06-22T00:50:22;6.93;;;4.40;;
46757;SDS011;32509;47.750;-3.396;2023-06-22T00:52:52;4.18;;;3.78;;
46757;SDS011;32509;47.750;-3.396;2023-06-22T00:55:22;5.78;;;4.03;;
46757;SDS011;32509;47.750;-3.396;2023-06-22T00:57:48;5.20;;;3.78;;
46757;SDS011;32509;47.750;-3.396;2023-06-22T01:00:15;3.67;;;3.30;;
46757;SDS011;32509;47.750;-3.396;2023-06-22T01:02:45;4.07;;;3.78;;
46757;SDS011;32509;47.750;-3.396;2023-06-22T01:05:16;4.45;;;4.05;;
46757;SDS011;32509;47.750;-3.396;2023-06-22T01:07:54;5.00;;;4.25;;
46757;SDS011;32509;47.750;-3.396;2023-06-22T01:10:55;5.28;;;3.38;;
46757;SDS011;32509;47.750;-3.396;2023-06-22T01:18:52;3.92;;;2.97;;
46757;SDS011;32509;47.750;-3.396;2023-06-22T01:21:21;5.22;;;3.83;;
46757;SDS011;32509;47.750;-3.396;2023-06-22T01:24:11;5.15;;;3.70;;
46757;SDS011;32509;47.750;-3.396;2023-06-22T01:29:50;6.68;;;3.47;;
46757;SDS011;32509;47.750;-3.396;2023-06-22T01:32:27;4.15;;;3.85;;
46757;SDS011;32509;47.750;-3.396;2023-06-22T01:35:00;3.55;;;3.20;;
46757;SDS011;32509;47.750;-3.396;2023-06-22T01:37:29;4.00;;;3.70;;
46757;SDS011;32509;47.750;-3.396;2023-06-22T01:39:57;3.80;;;3.45;;
46757;SDS011;32509;47.750;-3.396;2023-06-22T01:42:24;4.97;;;4.50;;
46757;SDS011;32509;47.750;-3.396;2023-06-22T01:44:52;6.05;;;3.47;;
46757;SDS011;32509;47.750;-3.396;2023-06-22T01:47:18;4.18;;;3.10;;
46757;SDS011;32509;47.750;-3.396;2023-06-22T01:49:45;5.80;;;3.15;;
46757;SDS011;32509;47.750;-3.396;2023-06-22T01:52:11;5.28;;;3.22;;
46757;SDS011;32509;47.750;-3.396;2023-06-22T01:54:41;4.88;;;3.58;;
46757;SDS011;32509;47.750;-3.396;2023-06-22T01:57:07;4.68;;;3.17;;
46757;SDS011;32509;47.750;-3.396;2023-06-22T01:59:37;3.83;;;3.42;;
46757;SDS011;32509;47.750;-3.396;2023-06-22T02:02:10;3.47;;;3.15;;
46757;SDS011;32509;47.750;-3.396;2023-06-22T02:04:53;2.95;;;2.75;;
46757;SDS011;32509;47.750;-3.396;2023-06-22T02:07:49;3.42;;;2.80;;
46757;SDS011;32509;47.750;-3.396;2023-06-22T02:10:22;3.22;;;2.92;;
46757;SDS011;32509;47.750;-3.396;2023-06-22T02:12:51;5.50;;;3.40;;
46757;SDS011;32509;47.750;-3.396;2023-06-22T02:15:17;3.08;;;2.80;;
46757;SDS011;32509;47.750;-3.396;2023-06-22T02:17:43;3.20;;;3.00;;
46757;SDS011;32509;47.750;-3.396;2023-06-22T02:20:18;3.08;;;2.80;;
46757;SDS011;32509;47.750;-3.396;2023-06-22T02:22:45;4.30;;;2.80;;
46757;SDS011;32509;47.750;-3.396;2023-06-22T02:25:10;3.67;;;2.75;;
46757;SDS011;32509;47.750;-3.396;2023-06-22T02:27:36;3.03;;;2.42;;
46757;SDS011;32509;47.750;-3.396;2023-06-22T02:30:06;3.40;;;2.78;;
46757;SDS011;32509;47.750;-3.396;2023-06-22T02:32:35;3.05;;;2.75;;
46757;SDS011;32509;47.750;-3.396;2023-06-22T02:35:01;3.08;;;2.85;;
46757;SDS011;32509;47.750;-3.396;2023-06-22T02:37:31;3.00;;;2.80;;
46757;SDS011;32509;47.750;-3.396;2023-06-22T02:39:57;2.80;;;2.60;;
46757;SDS011;32509;47.750;-3.396;2023-06-22T02:42:23;6.32;;;3.40;;
46757;SDS011;32509;47.750;-3.396;2023-06-22T02:44:49;3.45;;;3.15;;
46757;SDS011;32509;47.750;-3.396;2023-06-22T02:47:15;4.40;;;3.00;;
46757;SDS011;32509;47.750;-3.396;2023-06-22T02:49:40;2.85;;;2.65;;
46757;SDS011;32509;47.750;-3.396;2023-06-22T02:52:07;2.80;;;2.60;;
46757;SDS011;32509;47.750;-3.396;2023-06-22T02:54:32;4.50;;;3.22;;
46757;SDS011;32509;47.750;-3.396;2023-06-22T02:56:58;3.75;;;3.15;;
46757;SDS011;32509;47.750;-3.396;2023-06-22T02:59:28;4.40;;;2.58;;
46757;SDS011;32509;47.750;-3.396;2023-06-22T03:01:53;3.80;;;3.20;;
46757;SDS011;32509;47.750;-3.396;2023-06-22T03:04:19;3.10;;;2.80;;
46757;SDS011;32509;47.750;-3.396;2023-06-22T03:06:45;3.30;;;2.63;;
46757;SDS011;32509;47.750;-3.396;2023-06-22T03:09:15;2.80;;;2.50;;
46757;SDS011;32509;47.750;-3.396;2023-06-22T03:11:42;2.78;;;2.58;;
46757;SDS011;32509;47.750;-3.396;2023-06-22T03:14:08;4.65;;;2.90;;
46757;SDS011;32509;47.750;-3.396;2023-06-22T03:16:34;3.08;;;2.80;;
46757;SDS011;32509;47.750;-3.396;2023-06-22T03:18:59;4.32;;;2.63;;
46757;SDS011;32509;47.750;-3.396;2023-06-22T03:21:27;4.97;;;2.33;;
46757;SDS011;32509;47.750;-3.396;2023-06-22T03:23:53;3.10;;;2.70;;
46757;SDS011;32509;47.750;-3.396;2023-06-22T03:26:19;4.05;;;2.58;;
46757;SDS011;32509;47.750;-3.396;2023-06-22T03:28:46;3.80;;;3.20;;
46757;SDS011;32509;47.750;-3.396;2023-06-22T03:31:11;3.78;;;2.95;;
46757;SDS011;32509;47.750;-3.396;2023-06-22T03:33:40;2.83;;;2.63;;
46757;SDS011;32509;47.750;-3.396;2023-06-22T03:36:06;3.03;;;2.72;;
46757;SDS011;32509;47.750;-3.396;2023-06-22T03:38:32;3.22;;;2.80;;
46757;SDS011;32509;47.750;-3.396;2023-06-22T03:40:58;2.55;;;2.35;;
46757;SDS011;32509;47.750;-3.396;2023-06-22T03:43:23;3.22;;;2.92;;
46757;SDS011;32509;47.750;-3.396;2023-06-22T03:45:52;3.28;;;3.03;;
46757;SDS011;32509;47.750;-3.396;2023-06-22T03:48:18;3.85;;;2.50;;
46757;SDS011;32509;47.750;-3.396;2023-06-22T03:50:44;4.47;;;2.58;;
46757;SDS011;32509;47.750;-3.396;2023-06-22T03:53:10;2.72;;;2.53;;
46757;SDS011;32509;47.750;-3.396;2023-06-22T03:55:36;5.82;;;2.42;;
46757;SDS011;32509;47.750;-3.396;2023-06-22T03:58:01;2.97;;;2.75;;
46757;SDS011;32509;47.750;-3.396;2023-06-22T04:00:31;3.75;;;2.88;;
46757;SDS011;32509;47.750;-3.396;2023-06-22T04:02:57;2.70;;;2.50;;
46757;SDS011;32509;47.750;-3.396;2023-06-22T04:05:23;4.38;;;2.67;;
46757;SDS011;32509;47.750;-3.396;2023-06-22T04:07:49;3.72;;;2.53;;
46757;SDS011;32509;47.750;-3.396;2023-06-22T04:10:15;3.80;;;3.30;;
46757;SDS011;32509;47.750;-3.396;2023-06-22T04:12:41;4.90;;;3.22;;
46757;SDS011;32509;47.750;-3.396;2023-06-22T04:15:07;2.75;;;2.55;;
46757;SDS011;32509;47.750;-3.396;2023-06-22T04:17:33;2.88;;;2.67;;
46757;SDS011;32509;47.750;-3.396;2023-06-22T04:19:58;3.08;;;2.78;;
46757;SDS011;32509;47.750;-3.396;2023-06-22T04:22:24;3.38;;;3.08;;
46757;SDS011;32509;47.750;-3.396;2023-06-22T04:24:50;3.78;;;2.40;;
46757;SDS011;32509;47.750;-3.396;2023-06-22T04:27:20;2.85;;;2.63;;
46757;SDS011;32509;47.750;-3.396;2023-06-22T04:29:48;5.32;;;3.55;;
46757;SDS011;32509;47.750;-3.396;2023-06-22T04:32:17;5.90;;;2.97;;
46757;SDS011;32509;47.750;-3.396;2023-06-22T04:34:43;5.47;;;3.00;;
46757;SDS011;32509;47.750;-3.396;2023-06-22T04:37:09;2.90;;;2.60;;
46757;SDS011;32509;47.750;-3.396;2023-06-22T04:39:40;4.95;;;3.33;;
46757;SDS011;32509;47.750;-3.396;2023-06-22T04:42:07;6.38;;;3.08;;
46757;SDS011;32509;47.750;-3.396;2023-06-22T04:44:33;3.42;;;3.13;;
46757;SDS011;32509;47.750;-3.396;2023-06-22T04:46:59;3.58;;;3.28;;
46757;SDS011;32509;47.750;-3.396;2023-06-22T04:49:27;3.80;;;3.13;;
46757;SDS011;32509;47.750;-3.396;2023-06-22T04:52:04;3.63;;;3.15;;
46757;SDS011;32509;47.750;-3.396;2023-06-22T04:54:31;6.43;;;3.00;;
46757;SDS011;32509;47.750;-3.396;2023-06-22T04:57:04;3.33;;;3.03;;
46757;SDS011;32509;47.750;-3.396;2023-06-22T04:59:34;5.05;;;3.58;;
46757;SDS011;32509;47.750;-3.396;2023-06-22T05:02:01;3.38;;;3.08;;
46757;SDS011;32509;47.750;-3.396;2023-06-22T05:04:28;5.05;;;3.58;;
46757;SDS011;32509;47.750;-3.396;2023-06-22T05:06:58;6.82;;;4.63;;
46757;SDS011;32509;47.750;-3.396;2023-06-22T05:09:25;4.82;;;3.65;;
46757;SDS011;32509;47.750;-3.396;2023-06-22T05:11:51;4.38;;;3.75;;
46757;SDS011;32509;47.750;-3.396;2023-06-22T05:14:17;4.72;;;3.60;;
46757;SDS011;32509;47.750;-3.396;2023-06-22T05:16:43;3.65;;;3.35;;
46757;SDS011;32509;47.750;-3.396;2023-06-22T05:19:10;4.57;;;3.67;;
46757;SDS011;32509;47.750;-3.396;2023-06-22T05:21:37;4.22;;;3.63;;
46757;SDS011;32509;47.750;-3.396;2023-06-22T05:24:03;6.85;;;4.20;;
46757;SDS011;32509;47.750;-3.396;2023-06-22T05:26:29;4.68;;;4.28;;
46757;SDS011;32509;47.750;-3.396;2023-06-22T05:28:56;6.88;;;3.75;;
46757;SDS011;32509;47.750;-3.396;2023-06-22T05:31:23;6.95;;;4.10;;
46757;SDS011;32509;47.750;-3.396;2023-06-22T05:33:50;10.27;;;3.95;;
46757;SDS011;32509;47.750;-3.396;2023-06-22T05:36:17;4.95;;;3.83;;
46757;SDS011;32509;47.750;-3.396;2023-06-22T05:38:44;5.07;;;3.67;;
46757;SDS011;32509;47.750;-3.396;2023-06-22T05:41:11;3.55;;;3.22;;
46757;SDS011;32509;47.750;-3.396;2023-06-22T05:43:37;6.90;;;3.65;;
46757;SDS011;32509;47.750;-3.396;2023-06-22T05:46:03;4.15;;;3.75;;
46757;SDS011;32509;47.750;-3.396;2023-06-22T05:48:29;4.10;;;3.72;;
46757;SDS011;32509;47.750;-3.396;2023-06-22T05:50:55;4.75;;;4.35;;
46757;SDS011;32509;47.750;-3.396;2023-06-22T05:53:21;6.55;;;3.20;;
46757;SDS011;32509;47.750;-3.396;2023-06-22T05:55:47;4.50;;;3.70;;
46757;SDS011;32509;47.750;-3.396;2023-06-22T05:58:13;5.82;;;3.53;;
46757;SDS011;32509;47.750;-3.396;2023-06-22T06:00:39;4.03;;;3.53;;
46757;SDS011;32509;47.750;-3.396;2023-06-22T06:03:06;7.75;;;3.33;;
46757;SDS011;32509;47.750;-3.396;2023-06-22T06:05:32;6.57;;;4.35;;
46757;SDS011;32509;47.750;-3.396;2023-06-22T06:08:02;4.18;;;3.28;;
46757;SDS011;32509;47.750;-3.396;2023-06-22T06:10:30;5.07;;;3.50;;
46757;SDS011;32509;47.750;-3.396;2023-06-22T06:12:57;4.65;;;2.83;;
46757;SDS011;32509;47.750;-3.396;2023-06-22T06:15:23;5.47;;;3.28;;
46757;SDS011;32509;47.750;-3.396;2023-06-22T06:17:49;4.20;;;3.90;;
46757;SDS011;32509;47.750;-3.396;2023-06-22T06:20:20;6.38;;;3.80;;
46757;SDS011;32509;47.750;-3.396;2023-06-22T06:22:47;3.65;;;3.35;;
46757;SDS011;32509;47.750;-3.396;2023-06-22T06:25:14;4.65;;;3.95;;
46757;SDS011;32509;47.750;-3.396;2023-06-22T06:27:44;5.85;;;4.05;;
46757;SDS011;32509;47.750;-3.396;2023-06-22T06:30:11;5.22;;;3.55;;
46757;SDS011;32509;47.750;-3.396;2023-06-22T06:32:40;5.15;;;3.63;;
46757;SDS011;32509;47.750;-3.396;2023-06-22T06:35:06;3.70;;;3.40;;
46757;SDS011;32509;47.750;-3.396;2023-06-22T06:37:36;6.47;;;3.78;;
46757;SDS011;32509;47.750;-3.396;2023-06-22T06:40:07;3.92;;;3.53;;
46757;SDS011;32509;47.750;-3.396;2023-06-22T06:42:44;3.78;;;3.42;;
46757;SDS011;32509;47.750;-3.396;2023-06-22T06:45:20;5.38;;;4.22;;
46757;SDS011;32509;47.750;-3.396;2023-06-22T06:47:50;4.18;;;3.88;;
46757;SDS011;32509;47.750;-3.396;2023-06-22T06:50:17;3.72;;;3.42;;
46757;SDS011;32509;47.750;-3.396;2023-06-22T06:52:43;3.95;;;2.97;;
46757;SDS011;32509;47.750;-3.396;2023-06-22T06:55:09;4.13;;;3.83;;
46757;SDS011;32509;47.750;-3.396;2023-06-22T06:57:40;3.78;;;3.42;;
46757;SDS011;32509;47.750;-3.396;2023-06-22T07:00:10;3.70;;;3.40;;
46757;SDS011;32509;47.750;-3.396;2023-06-22T07:02:39;5.15;;;4.18;;
46757;SDS011;32509;47.750;-3.396;2023-06-22T07:05:06;6.28;;;4.28;;
46757;SDS011;32509;47.750;-3.396;2023-06-22T07:07:32;3.58;;;3.28;;
46757;SDS011;32509;47.750;-3.396;2023-06-22T07:09:58;4.47;;;3.72;;
46757;SDS011;32509;47.750;-3.396;2023-06-22T07:12:24;3.53;;;3.33;;
46757;SDS011;32509;47.750;-3.396;2023-06-22T07:14:51;4.35;;;3.35;;
46757;SDS011;32509;47.750;-3.396;2023-06-22T07:17:17;6.40;;;4.13;;
46757;SDS011;32509;47.750;-3.396;2023-06-22T07:19:43;3.35;;;3.05;;
46757;SDS011;32509;47.750;-3.396;2023-06-22T07:22:08;11.63;;;4.57;;
46757;SDS011;32509;47.750;-3.396;2023-06-22T07:24:34;4.55;;;3.70;;
46757;SDS011;32509;47.750;-3.396;2023-06-22T07:27:00;6.13;;;4.63;;
46757;SDS011;32509;47.750;-3.396;2023-06-22T07:29:27;5.07;;;4.30;;
46757;SDS011;32509;47.750;-3.396;2023-06-22T07:31:53;4.10;;;3.67;;
46757;SDS011;32509;47.750;-3.396;2023-06-22T07:34:21;4.47;;;4.15;;
46757;SDS011;32509;47.750;-3.396;2023-06-22T07:36:47;3.35;;;3.15;;
46757;SDS011;32509;47.750;-3.396;2023-06-22T07:39:12;6.03;;;3.55;;
46757;SDS011;32509;47.750;-3.396;2023-06-22T07:41:39;4.70;;;3.28;;
46757;SDS011;32509;47.750;-3.396;2023-06-22T07:44:08;3.40;;;3.08;;
46757;SDS011;32509;47.750;-3.396;2023-06-22T07:46:34;3.88;;;3.35;;
46757;SDS011;32509;47.750;-3.396;2023-06-22T07:48:59;7.38;;;3.83;;
46757;SDS011;32509;47.750;-3.396;2023-06-22T07:51:26;3.97;;;3.67;;
46757;SDS011;32509;47.750;-3.396;2023-06-22T07:53:52;5.63;;;3.30;;
46757;SDS011;32509;47.750;-3.396;2023-06-22T07:56:17;4.28;;;3.58;;
46757;SDS011;32509;47.750;-3.396;2023-06-22T07:58:46;3.75;;;3.42;;
46757;SDS011;32509;47.750;-3.396;2023-06-22T08:01:13;3.35;;;3.05;;
46757;SDS011;32509;47.750;-3.396;2023-06-22T08:03:40;5.03;;;3.47;;
46757;SDS011;32509;47.750;-3.396;2023-06-22T08:06:06;4.25;;;3.30;;
46757;SDS011;32509;47.750;-3.396;2023-06-22T08:08:34;4.63;;;3.13;;
46757;SDS011;32509;47.750;-3.396;2023-06-22T08:11:02;7.38;;;3.05;;
46757;SDS011;32509;47.750;-3.396;2023-06-22T08:13:28;4.20;;;3.00;;
46757;SDS011;32509;47.750;-3.396;2023-06-22T08:15:54;3.35;;;3.05;;
46757;SDS011;32509;47.750;-3.396;2023-06-22T08:18:20;3.47;;;2.90;;
46757;SDS011;32509;47.750;-3.396;2023-06-22T08:20:45;3.92;;;3.45;;
46757;SDS011;32509;47.750;-3.396;2023-06-22T08:23:11;4.75;;;3.70;;
46757;SDS011;32509;47.750;-3.396;2023-06-22T08:25:37;4.00;;;2.95;;
46757;SDS011;32509;47.750;-3.396;2023-06-22T08:28:03;5.68;;;2.80;;
46757;SDS011;32509;47.750;-3.396;2023-06-22T08:30:30;3.50;;;2.60;;
46757;SDS011;32509;47.750;-3.396;2023-06-22T08:32:56;3.17;;;2.58;;
46757;SDS011;32509;47.750;-3.396;2023-06-22T08:35:22;3.10;;;2.90;;
46757;SDS011;32509;47.750;-3.396;2023-06-22T08:37:48;2.97;;;2.78;;
46757;SDS011;32509;47.750;-3.396;2023-06-22T08:40:17;3.47;;;3.17;;
46757;SDS011;32509;47.750;-3.396;2023-06-22T08:42:45;3.03;;;2.60;;
46757;SDS011;32509;47.750;-3.396;2023-06-22T08:45:11;4.20;;;2.85;;
46757;SDS011;32509;47.750;-3.396;2023-06-22T08:47:37;3.15;;;2.85;;
46757;SDS011;32509;47.750;-3.396;2023-06-22T08:50:04;3.55;;;2.38;;
46757;SDS011;32509;47.750;-3.396;2023-06-22T08:52:31;4.25;;;2.63;;
46757;SDS011;32509;47.750;-3.396;2023-06-22T08:54:57;4.30;;;3.20;;
46757;SDS011;32509;47.750;-3.396;2023-06-22T08:57:26;6.15;;;3.67;;
46757;SDS011;32509;47.750;-3.396;2023-06-22T08:59:52;5.15;;;2.75;;
46757;SDS011;32509;47.750;-3.396;2023-06-22T09:02:18;2.75;;;2.40;;
46757;SDS011;32509;47.750;-3.396;2023-06-22T09:04:45;5.57;;;3.10;;
46757;SDS011;32509;47.750;-3.396;2023-06-22T09:07:11;2.78;;;2.53;;
46757;SDS011;32509;47.750;-3.396;2023-06-22T09:09:39;3.97;;;3.40;;
46757;SDS011;32509;47.750;-3.396;2023-06-22T09:12:05;4.03;;;2.92;;
46757;SDS011;32509;47.750;-3.396;2023-06-22T09:14:31;4.00;;;3.17;;
46757;SDS011;32509;47.750;-3.396;2023-06-22T09:16:57;4.03;;;2.88;;
46757;SDS011;32509;47.750;-3.396;2023-06-22T09:19:23;4.50;;;3.17;;
46757;SDS011;32509;47.750;-3.396;2023-06-22T09:21:48;3.63;;;3.00;;
46757;SDS011;32509;47.750;-3.396;2023-06-22T09:24:14;6.30;;;2.95;;
46757;SDS011;32509;47.750;-3.396;2023-06-22T09:26:40;6.57;;;3.15;;
46757;SDS011;32509;47.750;-3.396;2023-06-22T09:29:06;4.13;;;3.25;;
46757;SDS011;32509;47.750;-3.396;2023-06-22T09:31:31;2.97;;;2.60;;
46757;SDS011;32509;47.750;-3.396;2023-06-22T09:33:57;4.45;;;2.63;;
46757;SDS011;32509;47.750;-3.396;2023-06-22T09:36:23;2.33;;;2.15;;
46757;SDS011;32509;47.750;-3.396;2023-06-22T09:38:49;2.80;;;2.50;;
46757;SDS011;32509;47.750;-3.396;2023-06-22T09:41:20;3.13;;;2.67;;
46757;SDS011;32509;47.750;-3.396;2023-06-22T09:43:46;3.65;;;3.05;;
46757;SDS011;32509;47.750;-3.396;2023-06-22T09:46:14;2.67;;;2.47;;
46757;SDS011;32509;47.750;-3.396;2023-06-22T09:48:40;4.30;;;2.92;;
46757;SDS011;32509;47.750;-3.396;2023-06-22T09:51:06;3.33;;;3.03;;
46757;SDS011;32509;47.750;-3.396;2023-06-22T09:53:32;6.55;;;3.03;;
46757;SDS011;32509;47.750;-3.396;2023-06-22T09:55:59;4.70;;;3.08;;
46757;SDS011;32509;47.750;-3.396;2023-06-22T09:58:26;3.60;;;2.80;;
46757;SDS011;32509;47.750;-3.396;2023-06-22T10:00:52;5.55;;;3.38;;
46757;SDS011;32509;47.750;-3.396;2023-06-22T10:03:19;3.08;;;2.88;;
46757;SDS011;32509;47.750;-3.396;2023-06-22T10:05:47;4.35;;;3.15;;
46757;SDS011;32509;47.750;-3.396;2023-06-22T10:08:13;3.90;;;3.25;;
46757;SDS011;32509;47.750;-3.396;2023-06-22T10:10:38;3.33;;;2.63;;
46757;SDS011;32509;47.750;-3.396;2023-06-22T10:13:08;2.72;;;2.47;;
46757;SDS011;32509;47.750;-3.396;2023-06-22T10:15:37;5.75;;;3.20;;
46757;SDS011;32509;47.750;-3.396;2023-06-22T10:18:03;3.13;;;2.33;;
46757;SDS011;32509;47.750;-3.396;2023-06-22T10:20:29;2.55;;;2.35;;
46757;SDS011;32509;47.750;-3.396;2023-06-22T10:22:55;3.90;;;3.20;;
46757;SDS011;32509;47.750;-3.396;2023-06-22T10:25:21;6.90;;;2.92;;
46757;SDS011;32509;47.750;-3.396;2023-06-22T10:27:47;2.50;;;2.30;;
46757;SDS011;32509;47.750;-3.396;2023-06-22T10:30:13;3.78;;;2.45;;
46757;SDS011;32509;47.750;-3.396;2023-06-22T10:32:39;2.97;;;2.33;;
46757;SDS011;32509;47.750;-3.396;2023-06-22T10:35:06;3.95;;;2.90;;
46757;SDS011;32509;47.750;-3.396;2023-06-22T10:37:32;4.85;;;2.67;;
46757;SDS011;32509;47.750;-3.396;2023-06-22T10:39:58;3.00;;;2.33;;
46757;SDS011;32509;47.750;-3.396;2023-06-22T10:42:24;4.32;;;2.70;;
46757;SDS011;32509;47.750;-3.396;2023-06-22T10:44:49;2.88;;;2.60;;
46757;SDS011;32509;47.750;-3.396;2023-06-22T10:47:15;4.07;;;3.08;;
46757;SDS011;32509;47.750;-3.396;2023-06-22T10:49:41;5.78;;;2.95;;
46757;SDS011;32509;47.750;-3.396;2023-06-22T10:52:07;4.88;;;3.63;;
46757;SDS011;32509;47.750;-3.396;2023-06-22T10:54:34;2.80;;;2.60;;
46757;SDS011;32509;47.750;-3.396;2023-06-22T10:57:00;3.67;;;2.65;;
46757;SDS011;32509;47.750;-3.396;2023-06-22T10:59:27;10.18;;;3.45;;
46757;SDS011;32509;47.750;-3.396;2023-06-22T11:01:57;5.88;;;3.10;;
46757;SDS011;32509;47.750;-3.396;2023-06-22T11:04:24;4.13;;;3.08;;
46757;SDS011;32509;47.750;-3.396;2023-06-22T11:06:50;3.08;;;2.47;;
46757;SDS011;32509;47.750;-3.396;2023-06-22T11:09:16;4.82;;;2.58;;
46757;SDS011;32509;47.750;-3.396;2023-06-22T11:11:45;3.08;;;2.85;;
46757;SDS011;32509;47.750;-3.396;2023-06-22T11:14:15;3.70;;;2.60;;
46757;SDS011;32509;47.750;-3.396;2023-06-22T11:16:41;3.70;;;2.97;;
46757;SDS011;32509;47.750;-3.396;2023-06-22T11:19:07;3.45;;;2.83;;
46757;SDS011;32509;47.750;-3.396;2023-06-22T11:21:33;4.00;;;3.00;;
46757;SDS011;32509;47.750;-3.396;2023-06-22T11:23:59;3.10;;;2.80;;
46757;SDS011;32509;47.750;-3.396;2023-06-22T11:26:25;3.67;;;2.80;;
46757;SDS011;32509;47.750;-3.396;2023-06-22T11:28:55;5.18;;;3.20;;
46757;SDS011;32509;47.750;-3.396;2023-06-22T11:31:20;3.90;;;3.17;;
46757;SDS011;32509;47.750;-3.396;2023-06-22T11:33:46;3.17;;;2.53;;
46757;SDS011;32509;47.750;-3.396;2023-06-22T11:36:13;3.83;;;3.28;;
46757;SDS011;32509;47.750;-3.396;2023-06-22T11:38:39;6.30;;;3.53;;
46757;SDS011;32509;47.750;-3.396;2023-06-22T11:41:06;3.45;;;3.15;;
46757;SDS011;32509;47.750;-3.396;2023-06-22T11:43:32;3.65;;;3.35;;
46757;SDS011;32509;47.750;-3.396;2023-06-22T11:45:59;7.15;;;3.10;;
46757;SDS011;32509;47.750;-3.396;2023-06-22T11:48:26;8.25;;;2.95;;
46757;SDS011;32509;47.750;-3.396;2023-06-22T11:50:52;3.13;;;2.83;;
46757;SDS011;32509;47.750;-3.396;2023-06-22T11:53:17;3.97;;;3.08;;
46757;SDS011;32509;47.750;-3.396;2023-06-22T11:55:44;3.53;;;3.22;;
46757;SDS011;32509;47.750;-3.396;2023-06-22T11:58:10;5.32;;;3.65;;
46757;SDS011;32509;47.750;-3.396;2023-06-22T12:00:36;3.40;;;3.20;;
46757;SDS011;32509;47.750;-3.396;2023-06-22T12:03:02;3.72;;;3.10;;
46757;SDS011;32509;47.750;-3.396;2023-06-22T12:05:28;3.83;;;3.10;;
46757;SDS011;32509;47.750;-3.396;2023-06-22T12:07:54;3.45;;;3.08;;
46757;SDS011;32509;47.750;-3.396;2023-06-22T12:10:21;3.35;;;3.15;;
46757;SDS011;32509;47.750;-3.396;2023-06-22T12:12:47;4.03;;;3.20;;
46757;SDS011;32509;47.750;-3.396;2023-06-22T12:15:13;4.10;;;3.13;;
46757;SDS011;32509;47.750;-3.396;2023-06-22T12:17:40;3.35;;;3.05;;
46757;SDS011;32509;47.750;-3.396;2023-06-22T12:20:06;3.78;;;2.75;;
46757;SDS011;32509;47.750;-3.396;2023-06-22T12:22:32;3.80;;;3.50;;
46757;SDS011;32509;47.750;-3.396;2023-06-22T12:24:58;3.42;;;2.65;;
46757;SDS011;32509;47.750;-3.396;2023-06-22T12:27:24;2.70;;;2.50;;
46757;SDS011;32509;47.750;-3.396;2023-06-22T12:29:50;3.22;;;2.85;;
46757;SDS011;32509;47.750;-3.396;2023-06-22T12:32:16;3.42;;;3.10;;
46757;SDS011;32509;47.750;-3.396;2023-06-22T12:34:43;2.97;;;2.47;;
46757;SDS011;32509;47.750;-3.396;2023-06-22T12:37:09;4.70;;;2.92;;
46757;SDS011;32509;47.750;-3.396;2023-06-22T12:39:35;3.55;;;2.80;;
46757;SDS011;32509;47.750;-3.396;2023-06-22T12:42:01;3.35;;;2.78;;
46757;SDS011;32509;47.750;-3.396;2023-06-22T12:44:27;3.15;;;2.95;;
46757;SDS011;32509;47.750;-3.396;2023-06-22T12:46:53;3.35;;;3.15;;
46757;SDS011;32509;47.750;-3.396;2023-06-22T12:49:19;3.50;;;3.22;;
46757;SDS011;32509;47.750;-3.396;2023-06-22T12:51:45;3.25;;;2.95;;
46757;SDS011;32509;47.750;-3.396;2023-06-22T12:54:10;3.33;;;3.03;;
46757;SDS011;32509;47.750;-3.396;2023-06-22T12:56:37;3.00;;;2.80;;
46757;SDS011;32509;47.750;-3.396;2023-06-22T12:59:03;4.75;;;2.85;;
46757;SDS011;32509;47.750;-3.396;2023-06-22T13:01:30;3.63;;;2.67;;
46757;SDS011;32509;47.750;-3.396;2023-06-22T13:03:57;3.22;;;2.92;;
46757;SDS011;32509;47.750;-3.396;2023-06-22T13:06:25;3.97;;;3.10;;
46757;SDS011;32509;47.750;-3.396;2023-06-22T13:08:51;3.70;;;2.75;;
46757;SDS011;32509;47.750;-3.396;2023-06-22T13:11:17;3.10;;;2.90;;
46757;SDS011;32509;47.750;-3.396;2023-06-22T13:13:44;3.20;;;2.95;;
46757;SDS011;32509;47.750;-3.396;2023-06-22T13:16:10;2.72;;;2.53;;
46757;SDS011;32509;47.750;-3.396;2023-06-22T13:18:36;3.28;;;3.08;;
46757;SDS011;32509;47.750;-3.396;2023-06-22T13:21:02;3.30;;;3.10;;
46757;SDS011;32509;47.750;-3.396;2023-06-22T13:23:28;3.17;;;2.88;;
46757;SDS011;32509;47.750;-3.396;2023-06-22T13:25:54;2.92;;;2.72;;
46757;SDS011;32509;47.750;-3.396;2023-06-22T13:28:20;2.92;;;2.72;;
46757;SDS011;32509;47.750;-3.396;2023-06-22T13:30:46;4.40;;;3.42;;
46757;SDS011;32509;47.750;-3.396;2023-06-22T13:33:16;5.32;;;3.58;;
46757;SDS011;32509;47.750;-3.396;2023-06-22T13:35:42;2.83;;;2.53;;
46757;SDS011;32509;47.750;-3.396;2023-06-22T13:38:08;3.20;;;2.90;;
46757;SDS011;32509;47.750;-3.396;2023-06-22T13:40:34;3.03;;;2.72;;
46757;SDS011;32509;47.750;-3.396;2023-06-22T13:43:00;3.35;;;2.90;;
46757;SDS011;32509;47.750;-3.396;2023-06-22T13:45:26;3.17;;;2.97;;
46757;SDS011;32509;47.750;-3.396;2023-06-22T13:47:52;3.35;;;3.05;;
46757;SDS011;32509;47.750;-3.396;2023-06-22T13:50:18;3.05;;;2.75;;
46757;SDS011;32509;47.750;-3.396;2023-06-22T13:52:44;2.92;;;2.65;;
46757;SDS011;32509;47.750;-3.396;2023-06-22T13:55:09;3.58;;;2.88;;
46757;SDS011;32509;47.750;-3.396;2023-06-22T13:57:36;5.13;;;3.08;;
46757;SDS011;32509;47.750;-3.396;2023-06-22T14:00:03;3.15;;;2.63;;
46757;SDS011;32509;47.750;-3.396;2023-06-22T14:02:30;3.97;;;2.75;;
46757;SDS011;32509;47.750;-3.396;2023-06-22T14:04:56;2.55;;;2.35;;
46757;SDS011;32509;47.750;-3.396;2023-06-22T14:07:22;6.78;;;2.58;;
46757;SDS011;32509;47.750;-3.396;2023-06-22T14:09:49;2.75;;;2.55;;
46757;SDS011;32509;47.750;-3.396;2023-06-22T14:12:15;2.42;;;2.20;;
46757;SDS011;32509;47.750;-3.396;2023-06-22T14:14:43;2.75;;;2.55;;
46757;SDS011;32509;47.750;-3.396;2023-06-22T14:17:09;4.57;;;3.05;;
46757;SDS011;32509;47.750;-3.396;2023-06-22T14:19:35;2.78;;;2.30;;
46757;SDS011;32509;47.750;-3.396;2023-06-22T14:22:01;2.60;;;2.40;;
46757;SDS011;32509;47.750;-3.396;2023-06-22T14:24:27;2.50;;;2.30;;
46757;SDS011;32509;47.750;-3.396;2023-06-22T14:26:53;3.35;;;3.05;;
46757;SDS011;32509;47.750;-3.396;2023-06-22T14:29:20;3.92;;;2.95;;
46757;SDS011;32509;47.750;-3.396;2023-06-22T14:31:46;3.10;;;2.90;;
46757;SDS011;32509;47.750;-3.396;2023-06-22T14:34:13;3.45;;;3.15;;
46757;SDS011;32509;47.750;-3.396;2023-06-22T14:36:39;3.13;;;2.80;;
46757;SDS011;32509;47.750;-3.396;2023-06-22T14:39:05;2.90;;;2.53;;
46757;SDS011;32509;47.750;-3.396;2023-06-22T14:41:30;3.22;;;2.92;;